Time;durP1;ratioP1;P1;durP2;ratioP2;P2;SDS_P1;SDS_P2;PMS_P1;PMS_P2;Temp;Humidity;BMP_temperature;BMP_pressure;BME280_temperature;BME280_humidity;BME280_pressure;Samples;Min_cycle;Max_cycle;Signal;HPM_P1;HPM_P2
2022/01/10 00:02:06;;;;;;;49.08;20.75;;;;;;;7.66;88.47;98369.56;5050195;28;20036;-40
2022/01/10 00:04:32;;;;;;;47.88;18.45;;;;;;;7.14;89.51;98367.13;5050095;28;20441;-39
2022/01/10 00:06:57;;;;;;;41.85;19.02;;;;;;;6.78;91.66;98372.03;5050110;28;20045;-39
2022/01/10 00:09:23;;;;;;;44.75;19.50;;;;;;;6.64;90.46;98368.66;5049944;28;20048;-39
2022/01/10 00:11:48;;;;;;;45.60;19.80;;;;;;;6.56;91.75;98362.81;5050346;28;20484;-39
2022/01/10 00:14:13;;;;;;;38.75;17.30;;;;;;;6.44;92.48;98362.66;5049888;28;20029;-39
2022/01/10 00:16:39;;;;;;;41.35;18.27;;;;;;;6.71;92.32;98367.81;5049890;28;20036;-39
2022/01/10 00:19:05;;;;;;;50.80;20.08;;;;;;;7.66;89.58;98378.31;5049822;28;20024;-39
2022/01/10 00:21:30;;;;;;;40.15;17.90;;;;;;;7.09;90.25;98372.25;5050173;28;20060;-39
2022/01/10 00:23:56;;;;;;;41.55;17.42;;;;;;;6.84;89.92;98371.19;5053688;28;20021;-38
2022/01/10 00:26:21;;;;;;;39.92;17.52;;;;;;;6.61;91.16;98371.72;5053492;28;20433;-40
2022/01/10 00:28:47;;;;;;;37.13;16.20;;;;;;;6.33;92.72;98373.88;5053712;28;20033;-39
2022/01/10 00:31:12;;;;;;;34.15;15.63;;;;;;;6.39;92.59;98378.31;5053804;28;20037;-39
2022/01/10 00:33:37;;;;;;;44.75;18.35;;;;;;;6.52;93.89;98380.91;5053475;28;20468;-53
2022/01/10 00:36:03;;;;;;;54.67;19.98;;;;;;;7.42;90.67;98367.53;5053265;28;20025;-54
2022/01/10 00:38:29;;;;;;;44.53;18.15;;;;;;;6.77;90.84;98343.97;5053343;28;20147;-53
2022/01/10 00:40:54;;;;;;;41.10;18.20;;;;;;;6.83;90.63;98366.09;5053274;28;20527;-51
2022/01/10 00:43:30;;;;;;;41.50;17.88;;;;;;;6.52;91.90;98358.97;5053122;28;20425;-53
2022/01/10 00:45:56;;;;;;;44.63;17.83;;;;;;;6.44;93.68;98360.00;5053295;28;20029;-53
2022/01/10 00:48:23;;;;;;;42.22;17.52;;;;;;;6.68;93.89;98363.75;5053051;28;20024;-53
2022/01/10 00:50:48;;;;;;;57.00;20.10;;;;;;;7.31;91.33;98355.00;5052954;28;20029;-51
2022/01/10 00:53:13;;;;;;;44.72;17.85;;;;;;;6.96;89.64;98349.34;5052903;28;20029;-50
2022/01/10 00:55:39;;;;;;;40.83;17.35;;;;;;;6.85;90.21;98348.19;5052830;28;20029;-53
2022/01/10 00:58:04;;;;;;;40.53;17.33;;;;;;;6.60;92.19;98348.94;5052865;28;20044;-50
2022/01/10 01:00:30;;;;;;;41.65;17.63;;;;;;;6.57;91.00;98349.38;5052667;28;20035;-52
2022/01/10 01:02:58;;;;;;;49.30;18.10;;;;;;;6.58;91.42;98345.69;5052808;28;20039;-53
2022/01/10 01:05:24;;;;;;;44.70;18.92;;;;;;;7.32;90.64;98348.66;5052702;28;20071;-53
2022/01/10 01:07:50;;;;;;;40.17;17.58;;;;;;;7.40;88.56;98347.59;5052265;28;20369;-52
2022/01/10 01:13:20;;;;;;;35.03;15.82;;;;;;;6.73;91.20;98326.91;5052917;28;20029;-50
2022/01/10 01:16:43;;;;;;;32.63;14.30;;;;;;;6.65;90.93;98330.63;5052717;28;20036;-53
2022/01/10 01:26:32;;;;;;;33.03;15.18;;;;;;;6.69;90.91;98311.69;5052090;28;20039;-53
2022/01/10 01:28:58;;;;;;;36.97;14.50;;;;;;;6.73;90.42;98310.25;5052069;28;20033;-52
2022/01/10 01:31:23;;;;;;;36.38;15.75;;;;;;;6.68;90.65;98307.41;5052219;28;20033;-53
2022/01/10 01:33:49;;;;;;;34.67;16.13;;;;;;;6.45;92.15;98299.03;5051622;28;20025;-53
2022/01/10 01:36:20;;;;;;;36.70;15.77;;;;;;;6.68;93.64;98308.22;5052043;28;20028;-52
2022/01/10 01:38:45;;;;;;;41.92;16.75;;;;;;;7.39;91.32;98308.94;5052210;28;20021;-52
2022/01/10 01:43:43;;;;;;;33.22;14.45;;;;;;;6.89;91.55;98299.13;5052349;28;20036;-50
2022/01/10 01:46:09;;;;;;;31.88;14.30;;;;;;;6.75;91.24;98308.19;5052061;28;20025;-51
2022/01/10 01:48:34;;;;;;;31.35;15.13;;;;;;;6.50;91.46;98292.28;5051912;28;20029;-53
2022/01/10 01:51:01;;;;;;;30.02;14.23;;;;;;;6.56;91.27;98296.72;5050496;28;20021;-51
2022/01/10 01:53:26;;;;;;;35.33;16.10;;;;;;;7.30;90.03;98303.09;5051800;28;20154;-51
2022/01/10 01:55:51;;;;;;;35.85;15.48;;;;;;;7.20;88.53;98302.78;5051793;28;20036;-52
2022/01/10 01:58:17;;;;;;;32.97;15.45;;;;;;;6.91;89.48;98291.81;5051665;28;20033;-54
2022/01/10 02:00:43;;;;;;;32.40;14.95;;;;;;;6.68;90.02;98287.06;5051830;28;20029;-50
2022/01/10 02:03:08;;;;;;;34.35;14.70;;;;;;;6.49;90.54;98288.00;5051669;28;20110;-52
2022/01/10 02:05:34;;;;;;;34.78;15.80;;;;;;;6.54;92.62;98289.00;5051499;28;20025;-53
2022/01/10 02:07:59;;;;;;;36.63;15.63;;;;;;;6.62;92.35;98301.16;5051593;28;20053;-53
2022/01/10 02:10:25;;;;;;;41.45;16.73;;;;;;;7.48;90.14;98294.34;5051404;28;20052;-53
2022/01/10 02:12:50;;;;;;;36.72;16.10;;;;;;;7.00;89.00;98297.63;5051457;28;20104;-53
2022/01/10 02:15:25;;;;;;;36.42;16.52;;;;;;;6.71;90.73;98299.88;5051575;28;20037;-51
2022/01/10 02:17:55;;;;;;;32.40;14.43;;;;;;;6.54;90.18;98291.63;5051559;28;20032;-54
2022/01/10 02:20:20;;;;;;;38.15;16.38;;;;;;;6.48;93.21;98297.78;5052100;28;20032;-54
2022/01/10 02:22:46;;;;;;;40.67;16.73;;;;;;;6.52;91.57;98293.69;5052101;28;20029;-51
2022/01/10 02:25:11;;;;;;;44.47;17.80;;;;;;;7.11;91.31;98298.78;5051999;28;20025;-54
2022/01/10 02:27:36;;;;;;;42.80;18.10;;;;;;;7.23;89.92;98289.09;5051890;28;20032;-53
2022/01/10 02:30:02;;;;;;;46.05;18.30;;;;;;;7.09;89.21;98293.69;5050513;28;20033;-52
2022/01/10 02:32:28;;;;;;;44.67;18.77;;;;;;;7.03;90.35;98286.63;5051907;28;20025;-53
2022/01/10 02:34:53;;;;;;;40.88;18.02;;;;;;;6.78;90.46;98297.19;5051803;28;20040;-51
2022/01/10 02:37:39;;;;;;;39.50;17.58;;;;;;;6.85;90.73;98290.84;5051843;28;20029;-52
2022/01/10 02:40:07;;;;;;;40.95;17.92;;;;;;;7.18;90.10;98289.75;5051403;28;20033;-52
2022/01/10 02:42:33;;;;;;;40.70;17.70;;;;;;;7.74;87.84;98287.19;5051622;28;20025;-54
2022/01/10 02:44:58;;;;;;;40.78;17.25;;;;;;;7.37;87.78;98282.66;5050646;28;20146;-53
2022/01/10 02:47:27;;;;;;;38.97;17.27;;;;;;;7.32;87.29;98282.50;5051258;28;20052;-52
2022/01/10 02:49:53;;;;;;;37.22;16.48;;;;;;;6.85;89.89;98282.91;5051652;28;20029;-53
2022/01/10 02:52:18;;;;;;;41.15;17.15;;;;;;;6.86;90.15;98278.41;5051348;28;20477;-53
2022/01/10 02:54:43;;;;;;;46.03;17.30;;;;;;;6.91;90.87;98280.41;5050798;28;20033;-53
2022/01/10 02:57:09;;;;;;;46.88;18.75;;;;;;;7.68;89.24;98288.06;5050910;28;20029;-51
2022/01/10 02:59:37;;;;;;;40.47;16.30;;;;;;;7.19;89.61;98290.56;5051284;28;20347;-54
2022/01/10 03:02:02;;;;;;;39.80;16.58;;;;;;;6.93;89.12;98286.28;5050925;28;20036;-51
2022/01/10 03:04:28;;;;;;;36.15;16.77;;;;;;;6.74;90.60;98291.53;5050974;28;20107;-52
2022/01/10 03:06:53;;;;;;;40.55;15.85;;;;;;;6.69;90.60;98278.13;5051151;28;20440;-50
2022/01/10 03:09:19;;;;;;;36.15;15.55;;;;;;;6.62;90.61;98278.16;5051352;28;20029;-53
2022/01/10 03:11:44;;;;;;;40.13;16.77;;;;;;;7.08;91.14;98280.69;5051320;28;20028;-53
2022/01/10 03:14:12;;;;;;;41.35;17.00;;;;;;;7.48;89.91;98275.81;5051030;28;20029;-52
2022/01/10 03:16:37;;;;;;;38.30;16.15;;;;;;;7.33;87.13;98281.50;5051184;28;20385;-53
2022/01/10 03:19:03;;;;;;;38.70;16.88;;;;;;;7.25;88.20;98281.75;5050901;28;20070;-53
2022/01/10 03:21:28;;;;;;;41.35;16.92;;;;;;;7.12;87.63;98289.81;5051098;28;20028;-52
2022/01/10 03:23:54;;;;;;;40.70;16.50;;;;;;;7.05;89.74;98295.16;5051399;28;20059;-53
2022/01/10 03:26:19;;;;;;;43.78;17.80;;;;;;;7.97;86.94;98286.53;5049426;28;20519;-54
2022/01/10 03:28:44;;;;;;;38.60;16.65;;;;;;;7.33;87.60;98296.53;5050889;28;20049;-54
2022/01/10 03:31:10;;;;;;;34.92;15.85;;;;;;;6.88;90.25;98294.88;5050965;28;20452;-52
2022/01/10 03:33:35;;;;;;;32.92;15.00;;;;;;;6.74;90.58;98291.53;5050563;28;20025;-52
2022/01/10 03:36:01;;;;;;;31.70;14.05;;;;;;;6.51;91.72;98292.09;5051125;28;20179;-52
2022/01/10 03:38:26;;;;;;;40.25;16.70;;;;;;;7.15;91.39;98305.25;5050642;28;20048;-52
2022/01/10 03:40:52;;;;;;;40.47;17.73;;;;;;;7.68;88.74;98304.75;5050665;28;20090;-53
2022/01/10 03:43:17;;;;;;;37.65;15.10;;;;;;;7.15;89.91;98314.00;5051041;28;20456;-53
2022/01/10 03:45:43;;;;;;;38.70;16.02;;;;;;;6.89;91.98;98309.72;5050748;28;20548;-54
2022/01/10 03:48:09;;;;;;;34.80;15.80;;;;;;;6.70;91.64;98315.94;5050766;28;20029;-53
2022/01/10 03:50:34;;;;;;;33.70;14.55;;;;;;;6.66;92.17;98315.56;5050202;28;20029;-52
2022/01/10 03:52:59;;;;;;;39.10;16.25;;;;;;;6.72;94.15;98317.38;5050975;28;20063;-53
2022/01/10 03:55:25;;;;;;;47.38;18.08;;;;;;;7.67;91.10;98326.97;5050393;28;20566;-52
2022/01/10 03:57:50;;;;;;;34.25;14.82;;;;;;;7.36;88.71;98322.59;5053123;28;20052;-52
2022/01/10 04:00:16;;;;;;;32.63;13.55;;;;;;;7.78;94.14;98328.88;5054153;28;20025;-52
2022/01/10 04:02:46;;;;;;;29.92;13.68;;;;;;;7.99;90.14;98318.91;5054438;28;20070;-53
2022/01/10 04:05:12;;;;;;;30.02;13.13;;;;;;;8.40;88.93;98317.38;5054278;28;20029;-51
2022/01/10 04:07:37;;;;;;;32.42;14.38;;;;;;;8.70;87.65;98313.94;5054139;28;20067;-54
2022/01/10 04:10:04;;;;;;;29.67;14.20;;;;;;;9.86;93.26;98327.56;5054022;28;20347;-54
2022/01/10 04:12:29;;;;;;;37.25;18.20;;;;;;;9.74;79.21;98324.13;5054580;28;20090;-54
2022/01/10 04:14:54;;;;;;;34.95;17.05;;;;;;;8.79;80.01;98317.91;5054309;28;20463;-52
2022/01/10 04:17:20;;;;;;;60.42;29.50;;;;;;;7.89;83.27;98335.31;5053950;28;20124;-53
2022/01/10 04:19:45;;;;;;;121.88;52.20;;;;;;;7.31;85.50;98333.84;5053574;28;20017;-53
2022/01/10 04:22:11;;;;;;;46.20;23.20;;;;;;;7.31;88.07;98346.22;5054319;28;20608;-54
2022/01/10 04:24:37;;;;;;;34.85;15.98;;;;;;;8.13;86.28;98346.88;5053897;28;20021;-53
2022/01/10 04:27:03;;;;;;;30.75;14.93;;;;;;;7.29;85.44;98338.53;5054110;28;20021;-54
2022/01/10 04:29:28;;;;;;;30.75;14.25;;;;;;;6.83;86.41;98342.31;5053639;28;20021;-53
2022/01/10 04:31:54;;;;;;;30.38;14.15;;;;;;;6.86;88.78;98336.59;5053284;28;20017;-52
2022/01/10 04:34:19;;;;;;;31.00;14.57;;;;;;;6.86;90.06;98339.25;5054205;28;20132;-54
2022/01/10 04:36:45;;;;;;;36.00;16.02;;;;;;;7.51;89.41;98333.66;5053612;28;20086;-53
2022/01/10 04:39:10;;;;;;;30.80;14.90;;;;;;;7.73;87.45;98334.06;5053894;28;20025;-52
2022/01/10 04:41:37;;;;;;;37.85;15.32;;;;;;;7.30;88.11;98337.50;5053561;28;20034;-53
2022/01/10 04:44:03;;;;;;;29.65;14.60;;;;;;;6.97;88.42;98348.34;5053575;28;20032;-53
2022/01/10 04:46:29;;;;;;;35.17;15.65;;;;;;;6.97;88.23;98343.03;5053309;28;20146;-52
2022/01/10 04:48:54;;;;;;;32.83;15.45;;;;;;;6.92;88.58;98341.03;5052848;28;20033;-53
2022/01/10 04:51:20;;;;;;;36.15;16.05;;;;;;;6.92;91.04;98338.38;5053406;28;20044;-52
2022/01/10 04:53:48;;;;;;;42.83;18.10;;;;;;;7.87;88.26;98342.66;5052613;28;20021;-53
2022/01/10 04:56:14;;;;;;;43.28;18.52;;;;;;;7.22;87.78;98345.72;5052038;28;20366;-53
2022/01/10 04:58:40;;;;;;;36.72;16.00;;;;;;;7.07;88.02;98343.38;5052018;28;20162;-54
2022/01/10 05:01:05;;;;;;;33.85;15.45;;;;;;;6.82;88.86;98341.50;5052378;28;20183;-53
2022/01/10 05:03:31;;;;;;;37.08;15.20;;;;;;;6.84;90.22;98341.28;5051949;28;20025;-50
2022/01/10 05:05:57;;;;;;;34.60;15.13;;;;;;;6.70;90.29;98348.50;5052295;28;20406;-53
2022/01/10 05:08:22;;;;;;;39.53;16.38;;;;;;;7.15;91.55;98347.59;5051153;28;20243;-51
2022/01/10 05:10:48;;;;;;;43.72;16.52;;;;;;;7.67;90.26;98355.28;5052035;28;20020;-51
2022/01/10 05:13:14;;;;;;;33.90;15.10;;;;;;;7.37;89.41;98355.97;5052244;28;20108;-52
2022/01/10 05:15:41;;;;;;;36.53;15.77;;;;;;;7.04;88.98;98357.84;5047084;28;20075;-54
2022/01/10 05:18:09;;;;;;;74.63;35.30;;;;;;;6.80;90.40;98356.78;5051115;28;20139;-52
2022/01/10 05:20:35;;;;;;;37.78;17.13;;;;;;;6.63;92.35;98358.28;5052818;28;20139;-39
2022/01/10 05:23:00;;;;;;;35.70;15.65;;;;;;;6.86;90.80;98352.47;5053263;28;20025;-39
2022/01/10 05:25:26;;;;;;;43.05;16.63;;;;;;;7.33;91.62;98352.94;5052642;28;20503;-40
2022/01/10 05:27:51;;;;;;;40.00;17.45;;;;;;;7.63;93.63;98368.97;5052342;28;20476;-39
2022/01/10 05:30:17;;;;;;;37.50;16.25;;;;;;;7.50;91.07;98363.81;5051461;28;20102;-39
2022/01/10 05:32:42;;;;;;;35.78;15.45;;;;;;;7.04;90.19;98363.13;5036600;28;20083;-39
2022/01/10 05:35:08;;;;;;;37.22;15.57;;;;;;;6.84;91.33;98365.09;5044844;28;20314;-39
2022/01/10 05:37:34;;;;;;;39.00;16.23;;;;;;;6.64;91.38;98362.53;5050228;28;20424;-39
2022/01/10 05:39:59;;;;;;;37.17;15.68;;;;;;;6.58;92.24;98366.03;5052351;28;20025;-39
2022/01/10 05:42:25;;;;;;;38.90;16.17;;;;;;;6.56;92.61;98373.38;5050773;28;20445;-40
2022/01/10 05:44:50;;;;;;;47.35;18.30;;;;;;;7.42;92.36;98383.41;5051252;28;20448;-39
2022/01/10 05:47:15;;;;;;;52.20;22.20;;;;;;;7.35;91.29;98385.31;5051423;28;20032;-39
2022/01/10 05:49:48;;;;;;;42.20;17.23;;;;;;;7.04;92.40;98384.31;5049872;28;20025;-39
2022/01/10 05:52:14;;;;;;;41.97;16.10;;;;;;;6.96;92.81;98386.38;5049036;28;20031;-38
2022/01/10 05:54:40;;;;;;;39.13;16.30;;;;;;;7.16;92.87;98395.00;5049005;28;20355;-39
2022/01/10 05:57:06;;;;;;;41.08;17.30;;;;;;;7.13;93.10;98384.03;5048450;28;20106;-39
2022/01/10 05:59:31;;;;;;;37.28;16.90;;;;;;;7.03;93.44;98392.44;5049423;28;20075;-41
2022/01/10 06:01:57;;;;;;;40.83;17.95;;;;;;;7.02;94.40;98399.53;5049273;28;20143;-40
2022/01/10 06:04:23;;;;;;;43.72;18.00;;;;;;;7.13;92.63;98400.72;5049630;28;20499;-40
2022/01/10 06:06:48;;;;;;;45.28;18.30;;;;;;;7.13;94.26;98400.72;5051394;28;20076;-40
2022/01/10 06:09:14;;;;;;;47.65;19.90;;;;;;;7.58;93.52;98411.19;5051074;28;20071;-40
2022/01/10 06:11:40;;;;;;;49.08;18.77;;;;;;;7.96;91.77;98404.13;5051057;28;20033;-40
2022/01/10 06:14:06;;;;;;;45.28;20.40;;;;;;;7.82;91.73;98406.91;5051547;28;20032;-40
2022/01/10 06:16:31;;;;;;;38.55;17.73;;;;;;;7.50;92.89;98403.50;5051455;28;20025;-40
2022/01/10 06:18:56;;;;;;;40.05;17.50;;;;;;;7.44;92.73;98407.84;5051339;28;20063;-40
2022/01/10 06:21:22;;;;;;;32.58;15.02;;;;;;;7.49;93.19;98416.97;5051653;28;20024;-41
2022/01/10 06:23:47;;;;;;;35.78;15.07;;;;;;;7.57;91.65;98417.47;5051638;28;20025;-41
2022/01/10 06:26:13;;;;;;;40.97;16.13;;;;;;;7.66;92.22;98415.38;5051618;28;20033;-41
2022/01/10 06:28:38;;;;;;;39.47;16.73;;;;;;;7.63;94.72;98419.28;5051205;28;20032;-41
2022/01/10 06:31:04;;;;;;;41.03;16.92;;;;;;;8.20;91.82;98416.47;5050985;28;20036;-41
2022/01/10 06:33:29;;;;;;;40.05;17.33;;;;;;;8.02;91.05;98421.78;5051629;28;20032;-40
2022/01/10 06:35:55;;;;;;;43.60;16.95;;;;;;;7.86;91.86;98420.50;5051204;28;20025;-39
2022/01/10 06:38:20;;;;;;;39.63;16.35;;;;;;;7.64;91.66;98420.91;5051350;28;20032;-41
2022/01/10 06:40:45;;;;;;;39.05;16.83;;;;;;;7.59;93.74;98426.00;5051499;28;20017;-39
2022/01/10 06:43:11;;;;;;;43.75;18.02;;;;;;;7.83;93.41;98435.00;5051028;28;20033;-39
2022/01/10 06:45:37;;;;;;;47.35;16.95;;;;;;;8.20;91.94;98428.94;5051193;28;20020;-40
2022/01/10 06:48:04;;;;;;;39.65;15.48;;;;;;;7.90;91.54;98434.94;5050592;28;20028;-40
2022/01/10 06:50:29;;;;;;;37.63;15.82;;;;;;;7.95;91.84;98437.72;5050705;28;20028;-39
2022/01/10 06:52:55;;;;;;;37.58;16.00;;;;;;;7.63;92.63;98437.81;5050831;28;20036;-39
2022/01/10 06:55:21;;;;;;;36.78;16.08;;;;;;;7.61;92.72;98439.03;5050947;28;20090;-39
2022/01/10 06:57:46;;;;;;;38.90;16.63;;;;;;;7.94;93.09;98436.13;5049394;28;20029;-39
2022/01/10 07:00:12;;;;;;;45.25;16.95;;;;;;;8.45;92.19;98428.88;5051066;28;20032;-39
2022/01/10 07:02:38;;;;;;;37.10;15.60;;;;;;;8.02;91.53;98435.84;5050748;28;20401;-40
2022/01/10 07:05:03;;;;;;;38.13;16.42;;;;;;;7.85;93.25;98437.44;5050952;28;20033;-40
2022/01/10 07:07:29;;;;;;;39.30;15.98;;;;;;;8.03;92.25;98434.00;5050403;28;20505;-39
2022/01/10 07:09:54;;;;;;;38.67;15.82;;;;;;;7.63;93.32;98437.00;5050558;28;20043;-40
2022/01/10 07:12:20;;;;;;;34.97;15.13;;;;;;;7.65;93.57;98434.94;5050076;28;20024;-39
2022/01/10 07:14:45;;;;;;;38.40;15.05;;;;;;;7.54;93.91;98435.63;5050691;28;20025;-39
2022/01/10 07:17:11;;;;;;;45.13;18.67;;;;;;;7.64;94.15;98439.44;5050578;28;20028;-39
2022/01/10 07:19:36;;;;;;;42.22;16.90;;;;;;;7.73;93.37;98445.28;5049894;28;20025;-39
2022/01/10 07:22:03;;;;;;;45.80;17.10;;;;;;;7.87;93.20;98438.03;5050536;28;20043;-40
2022/01/10 07:24:28;;;;;;;49.88;17.92;;;;;;;7.86;93.08;98443.53;5050268;28;20512;-40
2022/01/10 07:26:54;;;;;;;50.08;18.17;;;;;;;7.98;92.99;98445.25;5050256;28;20025;-40
2022/01/10 07:29:19;;;;;;;39.25;16.58;;;;;;;8.20;91.55;98444.84;5050026;28;20497;-40
2022/01/10 07:31:45;;;;;;;39.60;16.23;;;;;;;7.99;91.36;98449.50;5050021;28;20407;-40
2022/01/10 07:34:14;;;;;;;40.55;16.75;;;;;;;7.89;91.69;98448.41;5050027;28;20028;-40
2022/01/10 07:36:39;;;;;;;38.67;16.23;;;;;;;7.82;90.65;98451.09;5050497;28;20099;-40
2022/01/10 07:39:05;;;;;;;38.17;16.08;;;;;;;7.68;92.46;98447.75;5050259;28;20501;-40
2022/01/10 07:41:31;;;;;;;39.50;17.55;;;;;;;7.93;94.67;98453.03;5050227;28;20047;-41
2022/01/10 07:43:56;;;;;;;43.10;17.17;;;;;;;8.33;91.54;98441.25;5049432;28;20075;-41
2022/01/10 07:46:22;;;;;;;37.53;16.60;;;;;;;7.90;91.97;98456.13;5050419;28;20021;-41
2022/01/10 07:48:48;;;;;;;38.15;16.27;;;;;;;7.59;93.13;98456.97;5050128;28;20114;-39
2022/01/10 07:51:13;;;;;;;32.83;14.38;;;;;;;7.59;92.87;98456.97;5049971;28;20033;-40
2022/01/10 07:53:40;;;;;;;33.20;15.23;;;;;;;7.57;93.58;98457.19;5050200;28;20113;-40
2022/01/10 07:56:05;;;;;;;39.42;16.85;;;;;;;7.84;93.95;98462.28;5050128;28;20021;-40
2022/01/10 07:58:31;;;;;;;44.10;17.85;;;;;;;8.66;91.07;98459.44;5049868;28;20032;-39
2022/01/10 08:00:57;;;;;;;39.10;16.30;;;;;;;8.04;90.35;98464.78;5049932;28;20550;-40
2022/01/10 08:03:22;;;;;;;41.92;16.40;;;;;;;7.85;91.72;98468.41;5050560;28;20039;-40
2022/01/10 08:05:48;;;;;;;41.05;17.30;;;;;;;7.80;92.68;98471.69;5049803;28;20042;-40
2022/01/10 08:08:13;;;;;;;40.25;16.77;;;;;;;7.70;94.36;98472.19;5049873;28;20479;-40
2022/01/10 08:10:39;;;;;;;44.88;17.60;;;;;;;8.25;93.18;98476.78;5049930;28;20025;-40
2022/01/10 08:13:04;;;;;;;38.53;16.67;;;;;;;8.41;90.58;98465.66;5049956;28;20441;-40
2022/01/10 08:15:30;;;;;;;38.25;16.92;;;;;;;8.08;90.48;98465.16;5049952;28;20033;-41
2022/01/10 08:17:56;;;;;;;43.13;17.92;;;;;;;7.76;91.51;98468.66;5050142;28;20024;-42
2022/01/10 08:20:21;;;;;;;40.80;18.08;;;;;;;7.78;91.63;98471.91;5049824;28;20165;-41
2022/01/10 08:22:47;;;;;;;48.08;18.30;;;;;;;7.74;94.99;98469.91;5049397;28;20040;-40
2022/01/10 08:25:12;;;;;;;60.50;20.50;;;;;;;8.65;92.21;98467.66;5049618;28;20074;-40
2022/01/10 08:27:38;;;;;;;50.55;19.40;;;;;;;8.40;90.33;98463.19;5049834;28;20033;-40
2022/01/10 08:30:03;;;;;;;47.05;18.52;;;;;;;7.99;90.89;98465.41;5049919;28;20025;-40
2022/01/10 08:32:29;;;;;;;47.60;20.00;;;;;;;7.91;92.76;98465.69;5050021;28;20103;-40
2022/01/10 08:34:55;;;;;;;48.85;19.83;;;;;;;8.20;93.41;98471.34;5049956;28;20112;-40
2022/01/10 08:37:21;;;;;;;53.70;20.73;;;;;;;8.38;92.26;98465.25;5050454;28;20075;-40
2022/01/10 08:39:49;;;;;;;44.58;18.15;;;;;;;8.20;90.90;98464.19;5049696;28;20021;-39
2022/01/10 08:42:19;;;;;;;39.70;17.73;;;;;;;7.97;90.32;98467.47;5049771;28;20029;-40
2022/01/10 08:44:44;;;;;;;45.92;18.38;;;;;;;7.77;91.89;98465.00;5051918;28;20082;-41
2022/01/10 08:47:10;;;;;;;48.50;19.23;;;;;;;7.91;94.02;98467.53;5052861;28;20033;-40
2022/01/10 08:49:35;;;;;;;50.08;20.23;;;;;;;8.59;91.24;98461.38;5053089;28;20079;-41
2022/01/10 08:52:01;;;;;;;50.40;19.50;;;;;;;8.30;91.21;98458.41;5053135;28;20464;-40
2022/01/10 08:54:26;;;;;;;45.90;20.02;;;;;;;8.09;91.60;98456.97;5053040;28;20090;-41
2022/01/10 08:56:52;;;;;;;43.10;18.60;;;;;;;7.79;93.24;98460.28;5052592;28;20035;-40
2022/01/10 08:59:18;;;;;;;39.75;18.13;;;;;;;7.78;92.94;98463.16;5053277;28;20017;-41
2022/01/10 09:01:44;;;;;;;44.88;17.80;;;;;;;8.13;93.80;98454.69;5053029;28;20032;-39
2022/01/10 09:04:16;;;;;;;45.88;18.40;;;;;;;8.46;92.23;98449.06;5052804;28;20021;-40
2022/01/10 09:06:48;;;;;;;43.83;17.17;;;;;;;8.09;92.18;98448.19;5052803;28;20528;-39
2022/01/10 09:09:14;;;;;;;45.45;17.58;;;;;;;7.99;92.83;98454.00;5051612;28;20439;-40
2022/01/10 09:11:39;;;;;;;41.15;16.23;;;;;;;7.80;93.43;98447.84;5052828;28;20040;-40
2022/01/10 09:14:05;;;;;;;37.10;15.95;;;;;;;7.82;93.72;98453.75;5052850;28;20078;-41
2022/01/10 09:16:31;;;;;;;47.15;17.50;;;;;;;8.33;94.42;98454.50;5052754;28;20031;-40
2022/01/10 09:18:56;;;;;;;39.38;15.20;;;;;;;8.35;93.27;98452.44;5052754;28;20473;-39
2022/01/10 09:21:22;;;;;;;39.15;16.00;;;;;;;8.29;92.38;98450.66;5052300;28;20524;-39
2022/01/10 09:23:47;;;;;;;33.42;15.02;;;;;;;8.11;92.63;98454.09;5052369;28;20013;-39
2022/01/10 09:26:13;;;;;;;40.00;15.02;;;;;;;8.07;92.76;98452.91;5052208;28;20088;-39
2022/01/10 09:28:38;;;;;;;32.80;14.32;;;;;;;8.09;93.08;98451.69;5052308;28;20036;-40
2022/01/10 09:31:04;;;;;;;38.13;15.57;;;;;;;8.46;93.69;98457.03;5052173;28;20405;-40
2022/01/10 09:33:29;;;;;;;35.72;15.20;;;;;;;8.84;91.42;98448.03;5052209;28;20036;-40
2022/01/10 09:35:54;;;;;;;32.10;14.25;;;;;;;8.53;89.27;98447.16;5052362;28;20064;-40
2022/01/10 09:38:20;;;;;;;34.65;15.18;;;;;;;8.48;91.05;98452.31;5052122;28;20036;-39
2022/01/10 09:40:45;;;;;;;29.30;13.50;;;;;;;8.22;91.87;98443.59;5051911;28;20416;-40
2022/01/10 09:43:11;;;;;;;31.85;14.23;;;;;;;8.25;92.29;98452.16;5051419;28;20048;-40
2022/01/10 09:45:36;;;;;;;29.83;13.63;;;;;;;8.42;93.25;98450.56;5052227;28;20098;-40
2022/01/10 09:48:02;;;;;;;39.40;14.27;;;;;;;8.87;91.80;98446.75;5051552;28;20052;-41
2022/01/10 09:50:27;;;;;;;30.13;13.07;;;;;;;8.34;92.11;98441.03;5052456;28;20039;-40
2022/01/10 09:52:53;;;;;;;30.15;13.23;;;;;;;8.32;91.79;98435.13;5052046;28;20090;-40
2022/01/10 09:55:18;;;;;;;32.65;14.02;;;;;;;8.15;92.38;98434.91;5051496;28;20033;-40
2022/01/10 09:57:44;;;;;;;27.67;13.05;;;;;;;8.12;93.23;98434.53;5051879;28;20522;-43
2022/01/10 10:00:10;;;;;;;36.25;15.30;;;;;;;8.51;94.35;98437.81;5051501;28;20017;-40
2022/01/10 10:02:36;;;;;;;30.20;13.73;;;;;;;8.74;92.15;98442.44;5051569;28;20111;-40
2022/01/10 10:05:05;;;;;;;28.92;13.18;;;;;;;8.34;91.84;98440.19;5051320;28;20112;-40
2022/01/10 10:07:31;;;;;;;27.58;13.30;;;;;;;8.07;92.83;98442.31;5051018;28;20133;-40
2022/01/10 10:10:00;;;;;;;29.73;12.48;;;;;;;8.15;94.23;98432.25;5051532;28;20508;-40
2022/01/10 10:12:28;;;;;;;26.65;12.48;;;;;;;8.16;94.91;98433.84;5051422;28;20136;-40
2022/01/10 10:14:53;;;;;;;30.42;12.80;;;;;;;8.56;94.19;98428.16;5050228;28;20064;-40
2022/01/10 10:17:20;;;;;;;25.13;12.18;;;;;;;8.42;92.85;98434.66;5051434;28;20044;-40
2022/01/10 10:19:46;;;;;;;23.30;11.70;;;;;;;8.21;93.65;98438.50;5049729;28;20485;-40
2022/01/10 10:22:14;;;;;;;21.23;10.43;;;;;;;7.88;96.04;98437.00;5051142;28;20036;-40
2022/01/10 10:24:39;;;;;;;22.75;11.35;;;;;;;7.99;95.90;98430.16;5051210;28;20032;-40
2022/01/10 10:27:05;;;;;;;24.27;11.57;;;;;;;8.05;95.57;98437.22;5051114;28;20025;-39
2022/01/10 10:29:30;;;;;;;25.27;11.63;;;;;;;8.43;94.89;98433.59;5051038;28;20021;-39
2022/01/10 10:31:56;;;;;;;21.52;10.85;;;;;;;8.47;93.65;98426.81;5033342;28;20486;-39
2022/01/10 10:34:23;;;;;;;21.02;10.77;;;;;;;8.46;93.76;98432.38;5050990;28;20025;-40
2022/01/10 10:37:08;;;;;;;21.17;9.80;;;;;;;8.36;93.83;98420.41;5050793;28;20055;-40
2022/01/10 10:39:37;;;;;;;22.23;11.05;;;;;;;8.36;93.86;98420.41;5050879;28;20087;-40
2022/01/10 10:42:05;;;;;;;22.58;11.30;;;;;;;8.46;93.63;98427.06;5051018;28;20021;-40
2022/01/10 10:44:30;;;;;;;20.15;10.95;;;;;;;8.39;92.91;98425.25;5051300;28;20100;-41
2022/01/10 10:46:56;;;;;;;23.10;11.57;;;;;;;8.27;93.95;98427.03;5051084;28;20040;-41
2022/01/10 10:49:30;;;;;;;23.50;11.95;;;;;;;8.20;94.12;98424.44;5050923;28;20060;-41
2022/01/10 10:51:55;;;;;;;23.55;12.45;;;;;;;8.18;94.00;98428.34;5051591;28;20029;-41
2022/01/10 10:54:22;;;;;;;28.80;13.40;;;;;;;8.37;95.94;98429.16;5050722;28;20025;-41
2022/01/10 10:56:47;;;;;;;28.10;13.70;;;;;;;8.77;93.63;98418.91;5050464;28;20072;-40
2022/01/10 10:59:13;;;;;;;26.80;12.93;;;;;;;8.51;93.34;98428.03;5050349;28;20082;-40
2022/01/10 11:01:40;;;;;;;27.75;13.93;;;;;;;8.27;94.06;98431.53;5050841;28;20036;-40
2022/01/10 11:04:05;;;;;;;26.77;13.32;;;;;;;8.26;93.53;98429.91;5050900;28;20504;-40
2022/01/10 11:06:32;;;;;;;28.77;13.70;;;;;;;8.70;94.15;98436.78;5049777;28;20048;-40
2022/01/10 11:08:59;;;;;;;22.40;11.00;;;;;;;8.45;94.55;98428.88;5050141;28;20083;-40
2022/01/10 11:11:24;;;;;;;24.98;12.95;;;;;;;8.53;93.19;98431.25;5049232;28;20028;-39
2022/01/10 11:13:50;;;;;;;26.35;13.38;;;;;;;8.42;93.29;98424.03;5048693;28;20036;-40
2022/01/10 11:16:16;;;;;;;22.73;11.60;;;;;;;8.21;94.01;98418.13;5050761;28;20447;-40
2022/01/10 11:18:42;;;;;;;24.02;12.30;;;;;;;8.23;95.34;98431.16;5032099;28;20107;-40
2022/01/10 11:21:07;;;;;;;27.98;13.02;;;;;;;8.66;94.53;98426.81;5032296;28;20074;-40
2022/01/10 11:23:40;;;;;;;23.75;12.07;;;;;;;8.59;93.23;98421.59;5048733;28;20033;-41
2022/01/10 11:26:07;;;;;;;24.35;11.98;;;;;;;8.49;93.22;98426.59;5050469;28;20558;-41
2022/01/10 11:28:34;;;;;;;24.95;11.15;;;;;;;8.54;93.48;98430.22;5049965;28;20032;-40
2022/01/10 11:31:02;;;;;;;23.83;11.93;;;;;;;8.45;93.09;98423.59;5050128;28;20166;-40
2022/01/10 11:33:31;;;;;;;25.70;11.93;;;;;;;8.39;94.28;98425.25;5049912;28;20086;-40
2022/01/10 11:36:01;;;;;;;;;;;;;;;8.75;92.84;98418.31;5050616;28;20068;-38